sensor_id;sensor_type;location;lat;lon;timestamp;temperature;humidity
7445;DHT22;3764;48.126;11.594;2024-01-16T00:00:35;-1.60;99.90
7445;DHT22;3764;48.126;11.594;2024-01-16T00:03:02;-1.70;99.90
7445;DHT22;3764;48.126;11.594;2024-01-16T00:05:31;-1.60;99.90
7445;DHT22;3764;48.126;11.594;2024-01-16T00:07:58;-1.60;99.90
7445;DHT22;3764;48.126;11.594;2024-01-16T00:10:26;-1.60;99.90
7445;DHT22;3764;48.126;11.594;2024-01-16T00:12:53;-1.60;99.90
7445;DHT22;3764;48.126;11.594;2024-01-16T00:15:21;-1.70;99.90
7445;DHT22;3764;48.126;11.594;2024-01-16T00:17:48;-1.70;99.90
7445;DHT22;3764;48.126;11.594;2024-01-16T00:20:15;-1.80;99.90
7445;DHT22;3764;48.126;11.594;2024-01-16T00:22:44;-1.80;99.90
7445;DHT22;3764;48.126;11.594;2024-01-16T00:25:11;-1.80;99.90
7445;DHT22;3764;48.126;11.594;2024-01-16T00:27:39;-1.80;99.90
7445;DHT22;3764;48.126;11.594;2024-01-16T00:30:07;-1.80;99.90
7445;DHT22;3764;48.126;11.594;2024-01-16T00:32:35;-1.80;99.90
7445;DHT22;3764;48.126;11.594;2024-01-16T00:35:02;-1.90;99.90
7445;DHT22;3764;48.126;11.594;2024-01-16T00:37:30;-1.90;99.90
7445;DHT22;3764;48.126;11.594;2024-01-16T00:39:58;-1.90;99.90
7445;DHT22;3764;48.126;11.594;2024-01-16T00:42:26;-1.90;99.90
7445;DHT22;3764;48.126;11.594;2024-01-16T00:44:53;-2.00;99.90
7445;DHT22;3764;48.126;11.594;2024-01-16T00:47:20;-2.00;99.90
7445;DHT22;3764;48.126;11.594;2024-01-16T00:49:48;-1.90;99.90
7445;DHT22;3764;48.126;11.594;2024-01-16T00:52:15;-2.00;99.90
7445;DHT22;3764;48.126;11.594;2024-01-16T00:54:42;-1.90;99.90
7445;DHT22;3764;48.126;11.594;2024-01-16T00:57:11;-2.00;99.90
7445;DHT22;3764;48.126;11.594;2024-01-16T00:59:41;-2.00;99.90
7445;DHT22;3764;48.126;11.594;2024-01-16T01:02:08;-1.90;99.90
7445;DHT22;3764;48.126;11.594;2024-01-16T01:04:37;-2.00;99.90
7445;DHT22;3764;48.126;11.594;2024-01-16T01:07:07;-1.90;99.90
7445;DHT22;3764;48.126;11.594;2024-01-16T01:09:35;-1.90;99.90
7445;DHT22;3764;48.126;11.594;2024-01-16T01:12:02;-1.90;99.90
7445;DHT22;3764;48.126;11.594;2024-01-16T01:14:31;-2.00;99.90
7445;DHT22;3764;48.126;11.594;2024-01-16T01:16:59;-2.00;99.90
7445;DHT22;3764;48.126;11.594;2024-01-16T01:19:26;-2.00;99.90
7445;DHT22;3764;48.126;11.594;2024-01-16T01:21:54;-2.00;99.90
7445;DHT22;3764;48.126;11.594;2024-01-16T01:24:21;-1.90;99.90
7445;DHT22;3764;48.126;11.594;2024-01-16T01:26:48;-1.90;99.90
7445;DHT22;3764;48.126;11.594;2024-01-16T01:29:15;-1.90;99.90
7445;DHT22;3764;48.126;11.594;2024-01-16T01:31:47;-1.90;99.90
7445;DHT22;3764;48.126;11.594;2024-01-16T01:34:14;-2.00;99.90
7445;DHT22;3764;48.126;11.594;2024-01-16T01:36:42;-2.00;99.90
7445;DHT22;3764;48.126;11.594;2024-01-16T01:39:09;-2.00;99.90
7445;DHT22;3764;48.126;11.594;2024-01-16T01:41:38;-2.00;99.90
7445;DHT22;3764;48.126;11.594;2024-01-16T01:44:06;-2.00;99.90
7445;DHT22;3764;48.126;11.594;2024-01-16T01:46:41;-2.00;99.90
7445;DHT22;3764;48.126;11.594;2024-01-16T01:49:12;-2.00;99.90
7445;DHT22;3764;48.126;11.594;2024-01-16T01:51:41;-2.00;99.90
7445;DHT22;3764;48.126;11.594;2024-01-16T01:54:09;-1.90;99.90
7445;DHT22;3764;48.126;11.594;2024-01-16T01:56:37;-1.90;99.90
7445;DHT22;3764;48.126;11.594;2024-01-16T01:59:04;-1.90;99.90
7445;DHT22;3764;48.126;11.594;2024-01-16T02:01:33;-1.90;99.90
7445;DHT22;3764;48.126;11.594;2024-01-16T02:04:02;-1.90;99.90
7445;DHT22;3764;48.126;11.594;2024-01-16T02:06:31;-1.90;99.90
7445;DHT22;3764;48.126;11.594;2024-01-16T02:08:59;-1.90;99.90
7445;DHT22;3764;48.126;11.594;2024-01-16T02:11:26;-1.90;99.90
7445;DHT22;3764;48.126;11.594;2024-01-16T02:13:54;-2.00;99.90
7445;DHT22;3764;48.126;11.594;2024-01-16T02:16:22;-2.00;99.90
7445;DHT22;3764;48.126;11.594;2024-01-16T02:18:50;-2.00;99.90
7445;DHT22;3764;48.126;11.594;2024-01-16T02:21:20;-1.90;99.90
7445;DHT22;3764;48.126;11.594;2024-01-16T02:23:49;-2.00;99.90
7445;DHT22;3764;48.126;11.594;2024-01-16T02:26:17;-2.00;99.90
7445;DHT22;3764;48.126;11.594;2024-01-16T02:28:45;-2.00;99.90
7445;DHT22;3764;48.126;11.594;2024-01-16T02:31:12;-2.00;99.90
7445;DHT22;3764;48.126;11.594;2024-01-16T02:33:40;-2.00;99.90
7445;DHT22;3764;48.126;11.594;2024-01-16T02:36:07;-2.00;99.90
7445;DHT22;3764;48.126;11.594;2024-01-16T02:38:34;-2.00;99.90
7445;DHT22;3764;48.126;11.594;2024-01-16T02:41:03;-2.10;99.90
7445;DHT22;3764;48.126;11.594;2024-01-16T02:43:31;-2.10;99.90
7445;DHT22;3764;48.126;11.594;2024-01-16T02:45:59;-2.10;99.90
7445;DHT22;3764;48.126;11.594;2024-01-16T02:48:26;-2.10;99.90
7445;DHT22;3764;48.126;11.594;2024-01-16T02:50:53;-2.10;99.90
7445;DHT22;3764;48.126;11.594;2024-01-16T02:53:21;-2.10;99.90
7445;DHT22;3764;48.126;11.594;2024-01-16T02:55:48;-2.10;99.90
7445;DHT22;3764;48.126;11.594;2024-01-16T02:58:17;-2.10;99.90
7445;DHT22;3764;48.126;11.594;2024-01-16T03:00:44;-2.10;99.90
7445;DHT22;3764;48.126;11.594;2024-01-16T03:03:11;-2.10;99.90
7445;DHT22;3764;48.126;11.594;2024-01-16T03:05:38;-2.10;99.90
7445;DHT22;3764;48.126;11.594;2024-01-16T03:08:07;-2.10;99.90
7445;DHT22;3764;48.126;11.594;2024-01-16T03:10:34;-2.20;99.90
7445;DHT22;3764;48.126;11.594;2024-01-16T03:13:01;-2.20;99.90
7445;DHT22;3764;48.126;11.594;2024-01-16T03:15:31;-2.20;99.90
7445;DHT22;3764;48.126;11.594;2024-01-16T03:17:58;-2.20;99.90
7445;DHT22;3764;48.126;11.594;2024-01-16T03:20:25;-2.30;99.90
7445;DHT22;3764;48.126;11.594;2024-01-16T03:22:53;-2.30;99.90
7445;DHT22;3764;48.126;11.594;2024-01-16T03:25:21;-2.30;99.90
7445;DHT22;3764;48.126;11.594;2024-01-16T03:27:48;-2.40;99.90
7445;DHT22;3764;48.126;11.594;2024-01-16T03:30:15;-2.40;99.90
7445;DHT22;3764;48.126;11.594;2024-01-16T03:32:44;-2.40;99.90
7445;DHT22;3764;48.126;11.594;2024-01-16T03:35:11;-2.40;99.90
7445;DHT22;3764;48.126;11.594;2024-01-16T03:37:39;-2.40;99.90
7445;DHT22;3764;48.126;11.594;2024-01-16T03:40:07;-2.50;99.90
7445;DHT22;3764;48.126;11.594;2024-01-16T03:42:34;-2.50;99.90
7445;DHT22;3764;48.126;11.594;2024-01-16T03:45:06;-2.50;99.90
7445;DHT22;3764;48.126;11.594;2024-01-16T03:47:33;-2.50;99.90
7445;DHT22;3764;48.126;11.594;2024-01-16T03:50:02;-2.50;99.90
7445;DHT22;3764;48.126;11.594;2024-01-16T03:52:30;-2.50;99.90
7445;DHT22;3764;48.126;11.594;2024-01-16T03:54:57;-2.50;99.90
7445;DHT22;3764;48.126;11.594;2024-01-16T03:57:24;-2.50;99.90
7445;DHT22;3764;48.126;11.594;2024-01-16T03:59:52;-2.50;99.90
7445;DHT22;3764;48.126;11.594;2024-01-16T04:02:19;-2.50;99.90
7445;DHT22;3764;48.126;11.594;2024-01-16T04:04:46;-2.40;99.90
7445;DHT22;3764;48.126;11.594;2024-01-16T04:07:15;-2.40;99.90
7445;DHT22;3764;48.126;11.594;2024-01-16T04:09:42;-2.40;99.90
7445;DHT22;3764;48.126;11.594;2024-01-16T04:12:10;-2.40;99.90
7445;DHT22;3764;48.126;11.594;2024-01-16T04:14:37;-2.30;99.90
7445;DHT22;3764;48.126;11.594;2024-01-16T04:17:04;-2.30;99.90
7445;DHT22;3764;48.126;11.594;2024-01-16T04:19:31;-2.20;99.90
7445;DHT22;3764;48.126;11.594;2024-01-16T04:21:59;-2.20;99.90
7445;DHT22;3764;48.126;11.594;2024-01-16T04:24:29;-2.20;99.90
7445;DHT22;3764;48.126;11.594;2024-01-16T04:26:56;-2.20;99.90
7445;DHT22;3764;48.126;11.594;2024-01-16T04:29:24;-2.10;99.90
7445;DHT22;3764;48.126;11.594;2024-01-16T04:31:51;-2.10;99.90
7445;DHT22;3764;48.126;11.594;2024-01-16T04:34:19;-2.10;99.90
7445;DHT22;3764;48.126;11.594;2024-01-16T04:36:46;-2.10;99.90
7445;DHT22;3764;48.126;11.594;2024-01-16T04:39:13;-2.00;99.90
7445;DHT22;3764;48.126;11.594;2024-01-16T04:41:42;-2.00;99.90
7445;DHT22;3764;48.126;11.594;2024-01-16T04:44:09;-2.00;99.90
7445;DHT22;3764;48.126;11.594;2024-01-16T04:46:37;-2.00;99.90
7445;DHT22;3764;48.126;11.594;2024-01-16T04:49:04;-1.90;99.90
7445;DHT22;3764;48.126;11.594;2024-01-16T04:51:32;-1.90;99.90
7445;DHT22;3764;48.126;11.594;2024-01-16T04:53:59;-2.00;99.90
7445;DHT22;3764;48.126;11.594;2024-01-16T04:56:26;-1.90;99.90
7445;DHT22;3764;48.126;11.594;2024-01-16T04:58:55;-2.00;99.90
7445;DHT22;3764;48.126;11.594;2024-01-16T05:01:22;-2.00;99.90
7445;DHT22;3764;48.126;11.594;2024-01-16T05:03:51;-2.00;99.90
7445;DHT22;3764;48.126;11.594;2024-01-16T05:06:18;-2.00;99.90
7445;DHT22;3764;48.126;11.594;2024-01-16T05:08:45;-1.90;99.90
7445;DHT22;3764;48.126;11.594;2024-01-16T05:11:13;-2.00;99.90
7445;DHT22;3764;48.126;11.594;2024-01-16T05:13:40;-2.00;99.90
7445;DHT22;3764;48.126;11.594;2024-01-16T05:16:09;-2.00;99.90
7445;DHT22;3764;48.126;11.594;2024-01-16T05:18:37;-2.00;99.90
7445;DHT22;3764;48.126;11.594;2024-01-16T05:21:04;-2.00;99.90
7445;DHT22;3764;48.126;11.594;2024-01-16T05:23:33;-2.00;99.90
7445;DHT22;3764;48.126;11.594;2024-01-16T05:26:00;-2.00;99.90
7445;DHT22;3764;48.126;11.594;2024-01-16T05:28:27;-2.10;99.90
7445;DHT22;3764;48.126;11.594;2024-01-16T05:30:54;-2.10;99.90
7445;DHT22;3764;48.126;11.594;2024-01-16T05:33:23;-2.20;99.90
7445;DHT22;3764;48.126;11.594;2024-01-16T05:35:50;-2.30;99.90
7445;DHT22;3764;48.126;11.594;2024-01-16T05:38:18;-2.30;99.90
7445;DHT22;3764;48.126;11.594;2024-01-16T05:40:45;-2.30;99.90
7445;DHT22;3764;48.126;11.594;2024-01-16T05:43:12;-2.30;99.90
7445;DHT22;3764;48.126;11.594;2024-01-16T05:45:40;-2.30;99.90
7445;DHT22;3764;48.126;11.594;2024-01-16T05:48:07;-2.30;99.90
7445;DHT22;3764;48.126;11.594;2024-01-16T05:50:37;-2.30;99.90
7445;DHT22;3764;48.126;11.594;2024-01-16T05:53:04;-2.30;99.90
7445;DHT22;3764;48.126;11.594;2024-01-16T05:55:31;-2.40;99.90
7445;DHT22;3764;48.126;11.594;2024-01-16T05:58:01;-2.40;99.90
7445;DHT22;3764;48.126;11.594;2024-01-16T06:00:28;-2.40;99.90
7445;DHT22;3764;48.126;11.594;2024-01-16T06:02:56;-2.40;99.90
7445;DHT22;3764;48.126;11.594;2024-01-16T06:05:23;-2.40;99.90
7445;DHT22;3764;48.126;11.594;2024-01-16T06:07:52;-2.40;99.90
7445;DHT22;3764;48.126;11.594;2024-01-16T06:10:18;-2.50;99.90
7445;DHT22;3764;48.126;11.594;2024-01-16T06:12:46;-2.50;99.90
7445;DHT22;3764;48.126;11.594;2024-01-16T06:15:13;-2.50;99.90
7445;DHT22;3764;48.126;11.594;2024-01-16T06:17:40;-2.50;99.90
7445;DHT22;3764;48.126;11.594;2024-01-16T06:20:09;-2.40;99.90
7445;DHT22;3764;48.126;11.594;2024-01-16T06:22:36;-2.40;99.90
7445;DHT22;3764;48.126;11.594;2024-01-16T06:25:06;-2.40;99.90
7445;DHT22;3764;48.126;11.594;2024-01-16T06:27:33;-2.40;99.90
7445;DHT22;3764;48.126;11.594;2024-01-16T06:30:00;-2.40;99.90
7445;DHT22;3764;48.126;11.594;2024-01-16T06:32:29;-2.40;99.90
7445;DHT22;3764;48.126;11.594;2024-01-16T06:34:56;-2.50;99.90
7445;DHT22;3764;48.126;11.594;2024-01-16T06:37:24;-2.50;99.90
7445;DHT22;3764;48.126;11.594;2024-01-16T06:39:51;-2.50;99.90
7445;DHT22;3764;48.126;11.594;2024-01-16T06:42:20;-2.50;99.90
7445;DHT22;3764;48.126;11.594;2024-01-16T06:44:47;-2.50;99.90
7445;DHT22;3764;48.126;11.594;2024-01-16T06:47:15;-2.50;99.90
7445;DHT22;3764;48.126;11.594;2024-01-16T06:49:42;-2.50;99.90
7445;DHT22;3764;48.126;11.594;2024-01-16T06:52:09;-2.40;99.90
7445;DHT22;3764;48.126;11.594;2024-01-16T06:54:37;-2.40;99.90
7445;DHT22;3764;48.126;11.594;2024-01-16T06:57:04;-2.50;99.90
7445;DHT22;3764;48.126;11.594;2024-01-16T06:59:33;-2.40;99.90
7445;DHT22;3764;48.126;11.594;2024-01-16T07:02:01;-2.30;99.90
7445;DHT22;3764;48.126;11.594;2024-01-16T07:04:29;-2.30;99.90
7445;DHT22;3764;48.126;11.594;2024-01-16T07:06:56;-2.30;99.90
7445;DHT22;3764;48.126;11.594;2024-01-16T07:09:25;-2.20;99.90
7445;DHT22;3764;48.126;11.594;2024-01-16T07:11:53;-2.20;99.90
7445;DHT22;3764;48.126;11.594;2024-01-16T07:14:20;-2.20;99.90
7445;DHT22;3764;48.126;11.594;2024-01-16T07:16:49;-2.20;99.90
7445;DHT22;3764;48.126;11.594;2024-01-16T07:19:16;-2.20;99.90
7445;DHT22;3764;48.126;11.594;2024-01-16T07:21:44;-2.20;99.90
7445;DHT22;3764;48.126;11.594;2024-01-16T07:24:11;-2.20;99.90
7445;DHT22;3764;48.126;11.594;2024-01-16T07:26:39;-2.20;99.90
7445;DHT22;3764;48.126;11.594;2024-01-16T07:29:07;-2.30;99.90
7445;DHT22;3764;48.126;11.594;2024-01-16T07:31:34;-2.40;99.90
7445;DHT22;3764;48.126;11.594;2024-01-16T07:34:03;-2.50;99.90
7445;DHT22;3764;48.126;11.594;2024-01-16T07:36:30;-2.50;99.90
7445;DHT22;3764;48.126;11.594;2024-01-16T07:38:58;-2.50;99.90
7445;DHT22;3764;48.126;11.594;2024-01-16T07:41:26;-2.60;99.90
7445;DHT22;3764;48.126;11.594;2024-01-16T07:43:53;-2.60;99.90
7445;DHT22;3764;48.126;11.594;2024-01-16T07:46:21;-2.60;99.90
7445;DHT22;3764;48.126;11.594;2024-01-16T07:48:49;-2.60;99.90
7445;DHT22;3764;48.126;11.594;2024-01-16T07:51:18;-2.60;99.90
7445;DHT22;3764;48.126;11.594;2024-01-16T07:53:45;-2.70;99.90
7445;DHT22;3764;48.126;11.594;2024-01-16T07:56:14;-2.70;99.90
7445;DHT22;3764;48.126;11.594;2024-01-16T07:58:42;-2.70;99.90
7445;DHT22;3764;48.126;11.594;2024-01-16T08:01:09;-2.70;99.90
7445;DHT22;3764;48.126;11.594;2024-01-16T08:03:36;-2.70;99.90
7445;DHT22;3764;48.126;11.594;2024-01-16T08:06:04;-2.70;99.90
7445;DHT22;3764;48.126;11.594;2024-01-16T08:08:33;-2.70;99.90
7445;DHT22;3764;48.126;11.594;2024-01-16T08:11:01;-2.70;99.90
7445;DHT22;3764;48.126;11.594;2024-01-16T08:13:28;-2.70;99.90
7445;DHT22;3764;48.126;11.594;2024-01-16T08:15:55;-2.70;99.90
7445;DHT22;3764;48.126;11.594;2024-01-16T08:18:23;-2.70;99.90
7445;DHT22;3764;48.126;11.594;2024-01-16T08:20:50;-2.70;99.90
7445;DHT22;3764;48.126;11.594;2024-01-16T08:23:17;-2.70;99.90
7445;DHT22;3764;48.126;11.594;2024-01-16T08:25:48;-2.70;99.90
7445;DHT22;3764;48.126;11.594;2024-01-16T08:28:17;-2.70;99.90
7445;DHT22;3764;48.126;11.594;2024-01-16T08:30:44;-2.70;99.90
7445;DHT22;3764;48.126;11.594;2024-01-16T08:33:12;-2.60;99.90
7445;DHT22;3764;48.126;11.594;2024-01-16T08:35:39;-2.60;99.90
7445;DHT22;3764;48.126;11.594;2024-01-16T08:38:06;-2.60;99.90
7445;DHT22;3764;48.126;11.594;2024-01-16T08:40:34;-2.60;99.90
7445;DHT22;3764;48.126;11.594;2024-01-16T08:43:03;-2.60;99.90
7445;DHT22;3764;48.126;11.594;2024-01-16T08:45:30;-2.60;99.90
7445;DHT22;3764;48.126;11.594;2024-01-16T08:47:57;-2.50;99.90
7445;DHT22;3764;48.126;11.594;2024-01-16T08:50:25;-2.50;99.90
7445;DHT22;3764;48.126;11.594;2024-01-16T08:52:53;-2.50;99.90
7445;DHT22;3764;48.126;11.594;2024-01-16T08:55:20;-2.40;99.90
7445;DHT22;3764;48.126;11.594;2024-01-16T08:57:48;-2.40;99.90
7445;DHT22;3764;48.126;11.594;2024-01-16T09:00:17;-2.40;99.90
7445;DHT22;3764;48.126;11.594;2024-01-16T09:02:45;-2.40;99.90
7445;DHT22;3764;48.126;11.594;2024-01-16T09:05:14;-2.40;99.90
7445;DHT22;3764;48.126;11.594;2024-01-16T09:07:41;-2.30;99.90
7445;DHT22;3764;48.126;11.594;2024-01-16T09:10:09;-2.30;99.90
7445;DHT22;3764;48.126;11.594;2024-01-16T09:12:37;-2.20;99.90
7445;DHT22;3764;48.126;11.594;2024-01-16T09:15:05;-2.20;99.90
7445;DHT22;3764;48.126;11.594;2024-01-16T09:17:34;-2.10;99.90
7445;DHT22;3764;48.126;11.594;2024-01-16T09:20:01;-2.10;99.90
7445;DHT22;3764;48.126;11.594;2024-01-16T09:22:29;-2.10;99.90
7445;DHT22;3764;48.126;11.594;2024-01-16T09:24:56;-2.10;99.90
7445;DHT22;3764;48.126;11.594;2024-01-16T09:27:23;-2.00;99.90
7445;DHT22;3764;48.126;11.594;2024-01-16T09:29:51;-2.00;99.90
7445;DHT22;3764;48.126;11.594;2024-01-16T09:32:18;-1.90;99.90
7445;DHT22;3764;48.126;11.594;2024-01-16T09:34:47;-1.90;99.90
7445;DHT22;3764;48.126;11.594;2024-01-16T09:37:14;-1.80;99.90
7445;DHT22;3764;48.126;11.594;2024-01-16T09:39:42;-1.80;99.90
7445;DHT22;3764;48.126;11.594;2024-01-16T09:42:12;-1.70;99.90
7445;DHT22;3764;48.126;11.594;2024-01-16T09:44:40;-1.70;99.90
7445;DHT22;3764;48.126;11.594;2024-01-16T09:47:08;-1.60;99.90
7445;DHT22;3764;48.126;11.594;2024-01-16T09:49:38;-1.60;99.90
7445;DHT22;3764;48.126;11.594;2024-01-16T09:52:07;-1.60;99.90
7445;DHT22;3764;48.126;11.594;2024-01-16T09:54:35;-1.50;99.90
7445;DHT22;3764;48.126;11.594;2024-01-16T09:57:05;-1.50;99.90
7445;DHT22;3764;48.126;11.594;2024-01-16T09:59:36;-1.40;99.90
7445;DHT22;3764;48.126;11.594;2024-01-16T10:02:05;-1.40;99.90
7445;DHT22;3764;48.126;11.594;2024-01-16T10:04:34;-1.30;99.90
7445;DHT22;3764;48.126;11.594;2024-01-16T10:07:02;-1.30;99.90
7445;DHT22;3764;48.126;11.594;2024-01-16T10:09:31;-1.20;99.90
7445;DHT22;3764;48.126;11.594;2024-01-16T10:11:59;-1.20;99.90
7445;DHT22;3764;48.126;11.594;2024-01-16T10:14:27;-1.20;99.90
7445;DHT22;3764;48.126;11.594;2024-01-16T10:16:56;-1.10;99.90
7445;DHT22;3764;48.126;11.594;2024-01-16T10:19:26;-1.10;99.90
7445;DHT22;3764;48.126;11.594;2024-01-16T10:22:01;-1.00;99.90
7445;DHT22;3764;48.126;11.594;2024-01-16T10:24:28;-1.00;99.90
7445;DHT22;3764;48.126;11.594;2024-01-16T10:26:59;-0.90;99.90
7445;DHT22;3764;48.126;11.594;2024-01-16T10:29:28;-0.90;99.90
7445;DHT22;3764;48.126;11.594;2024-01-16T10:31:57;-0.90;99.90
7445;DHT22;3764;48.126;11.594;2024-01-16T10:34:25;-0.90;99.90
7445;DHT22;3764;48.126;11.594;2024-01-16T10:36:58;-0.80;99.90
7445;DHT22;3764;48.126;11.594;2024-01-16T10:39:26;-0.80;99.90
7445;DHT22;3764;48.126;11.594;2024-01-16T10:41:57;-0.80;99.90
7445;DHT22;3764;48.126;11.594;2024-01-16T10:44:26;-0.80;99.90
7445;DHT22;3764;48.126;11.594;2024-01-16T10:47:10;-0.70;99.90
7445;DHT22;3764;48.126;11.594;2024-01-16T10:49:38;-0.70;99.90
7445;DHT22;3764;48.126;11.594;2024-01-16T10:52:10;-0.70;99.90
7445;DHT22;3764;48.126;11.594;2024-01-16T10:54:41;-0.70;99.90
7445;DHT22;3764;48.126;11.594;2024-01-16T10:57:11;-0.60;99.90
7445;DHT22;3764;48.126;11.594;2024-01-16T10:59:59;-0.60;99.90
7445;DHT22;3764;48.126;11.594;2024-01-16T11:02:38;-0.50;99.90
7445;DHT22;3764;48.126;11.594;2024-01-16T11:05:07;-0.50;99.90
7445;DHT22;3764;48.126;11.594;2024-01-16T11:07:37;-0.50;99.90
7445;DHT22;3764;48.126;11.594;2024-01-16T11:10:07;-0.50;99.90
7445;DHT22;3764;48.126;11.594;2024-01-16T11:12:36;-0.40;99.90
7445;DHT22;3764;48.126;11.594;2024-01-16T11:15:07;-0.40;99.90
7445;DHT22;3764;48.126;11.594;2024-01-16T11:17:36;-0.40;99.90
7445;DHT22;3764;48.126;11.594;2024-01-16T11:20:07;-0.40;99.90
7445;DHT22;3764;48.126;11.594;2024-01-16T11:22:38;-0.30;99.90
7445;DHT22;3764;48.126;11.594;2024-01-16T11:25:10;-0.30;99.90
7445;DHT22;3764;48.126;11.594;2024-01-16T11:27:37;-0.30;99.90
7445;DHT22;3764;48.126;11.594;2024-01-16T11:30:08;-0.30;99.90
7445;DHT22;3764;48.126;11.594;2024-01-16T11:32:37;-0.20;99.90
7445;DHT22;3764;48.126;11.594;2024-01-16T11:35:06;-0.20;99.90
7445;DHT22;3764;48.126;11.594;2024-01-16T11:37:34;-0.20;99.90
7445;DHT22;3764;48.126;11.594;2024-01-16T11:40:23;-0.20;99.90
7445;DHT22;3764;48.126;11.594;2024-01-16T11:42:52;-0.20;99.90
7445;DHT22;3764;48.126;11.594;2024-01-16T11:45:50;-0.20;99.90
7445;DHT22;3764;48.126;11.594;2024-01-16T11:48:19;-0.20;99.90
7445;DHT22;3764;48.126;11.594;2024-01-16T11:50:46;-0.10;99.90
7445;DHT22;3764;48.126;11.594;2024-01-16T11:53:32;-0.10;99.90
7445;DHT22;3764;48.126;11.594;2024-01-16T11:59:08;-0.10;99.90
7445;DHT22;3764;48.126;11.594;2024-01-16T12:01:38;-0.10;99.90
7445;DHT22;3764;48.126;11.594;2024-01-16T12:04:08;-0.10;99.90
7445;DHT22;3764;48.126;11.594;2024-01-16T12:06:36;-0.10;99.90
7445;DHT22;3764;48.126;11.594;2024-01-16T12:09:14;0.00;99.90
7445;DHT22;3764;48.126;11.594;2024-01-16T12:11:42;0.00;99.90
7445;DHT22;3764;48.126;11.594;2024-01-16T12:14:11;-0.10;99.90
7445;DHT22;3764;48.126;11.594;2024-01-16T12:16:40;-0.10;99.90
7445;DHT22;3764;48.126;11.594;2024-01-16T12:19:08;-0.10;99.90
7445;DHT22;3764;48.126;11.594;2024-01-16T12:21:39;0.00;99.90
7445;DHT22;3764;48.126;11.594;2024-01-16T12:24:07;0.00;99.90
7445;DHT22;3764;48.126;11.594;2024-01-16T12:26:35;0.00;99.90
7445;DHT22;3764;48.126;11.594;2024-01-16T12:29:02;0.00;99.90
7445;DHT22;3764;48.126;11.594;2024-01-16T12:31:30;0.00;99.90
7445;DHT22;3764;48.126;11.594;2024-01-16T12:34:06;0.10;99.90
7445;DHT22;3764;48.126;11.594;2024-01-16T12:36:34;0.10;99.90
7445;DHT22;3764;48.126;11.594;2024-01-16T12:39:03;0.10;99.90
7445;DHT22;3764;48.126;11.594;2024-01-16T12:41:34;0.10;99.90
7445;DHT22;3764;48.126;11.594;2024-01-16T12:44:03;0.10;99.90
7445;DHT22;3764;48.126;11.594;2024-01-16T12:46:30;0.20;99.90
7445;DHT22;3764;48.126;11.594;2024-01-16T12:49:01;0.20;99.90
7445;DHT22;3764;48.126;11.594;2024-01-16T12:51:30;0.30;99.90
7445;DHT22;3764;48.126;11.594;2024-01-16T12:54:11;0.30;99.90
7445;DHT22;3764;48.126;11.594;2024-01-16T12:56:38;0.40;99.90
7445;DHT22;3764;48.126;11.594;2024-01-16T12:59:10;0.40;99.90
7445;DHT22;3764;48.126;11.594;2024-01-16T13:01:40;0.40;99.90
7445;DHT22;3764;48.126;11.594;2024-01-16T13:04:09;0.40;99.90
7445;DHT22;3764;48.126;11.594;2024-01-16T13:06:38;0.40;99.90
7445;DHT22;3764;48.126;11.594;2024-01-16T13:09:10;0.40;99.90
7445;DHT22;3764;48.126;11.594;2024-01-16T13:11:48;0.40;99.90
7445;DHT22;3764;48.126;11.594;2024-01-16T13:14:17;0.40;99.90
7445;DHT22;3764;48.126;11.594;2024-01-16T13:16:44;0.40;99.90
7445;DHT22;3764;48.126;11.594;2024-01-16T13:19:12;0.60;99.90
7445;DHT22;3764;48.126;11.594;2024-01-16T13:21:40;0.40;99.90
7445;DHT22;3764;48.126;11.594;2024-01-16T13:24:08;0.40;99.90
7445;DHT22;3764;48.126;11.594;2024-01-16T13:26:36;0.40;99.90
7445;DHT22;3764;48.126;11.594;2024-01-16T13:29:04;0.40;99.90
7445;DHT22;3764;48.126;11.594;2024-01-16T13:31:32;0.40;99.90
7445;DHT22;3764;48.126;11.594;2024-01-16T13:33:59;0.40;99.90
7445;DHT22;3764;48.126;11.594;2024-01-16T13:36:26;0.40;99.90
7445;DHT22;3764;48.126;11.594;2024-01-16T13:38:55;0.40;99.90
7445;DHT22;3764;48.126;11.594;2024-01-16T13:41:23;0.40;99.90
7445;DHT22;3764;48.126;11.594;2024-01-16T13:43:50;0.40;99.90
7445;DHT22;3764;48.126;11.594;2024-01-16T13:46:18;0.40;99.90
7445;DHT22;3764;48.126;11.594;2024-01-16T13:48:45;0.40;99.90
7445;DHT22;3764;48.126;11.594;2024-01-16T13:51:12;0.40;99.90
7445;DHT22;3764;48.126;11.594;2024-01-16T13:53:41;0.50;99.90
7445;DHT22;3764;48.126;11.594;2024-01-16T13:56:10;0.50;99.90
7445;DHT22;3764;48.126;11.594;2024-01-16T13:58:38;0.50;99.90
7445;DHT22;3764;48.126;11.594;2024-01-16T14:01:05;0.60;99.90
7445;DHT22;3764;48.126;11.594;2024-01-16T14:03:32;0.50;99.90
7445;DHT22;3764;48.126;11.594;2024-01-16T14:06:00;0.60;99.90
7445;DHT22;3764;48.126;11.594;2024-01-16T14:08:27;0.60;99.90
7445;DHT22;3764;48.126;11.594;2024-01-16T14:10:54;0.60;99.90
7445;DHT22;3764;48.126;11.594;2024-01-16T14:13:23;0.60;99.90
7445;DHT22;3764;48.126;11.594;2024-01-16T14:15:51;0.60;99.90
7445;DHT22;3764;48.126;11.594;2024-01-16T14:18:18;0.70;99.90
7445;DHT22;3764;48.126;11.594;2024-01-16T14:20:46;0.60;99.90
7445;DHT22;3764;48.126;11.594;2024-01-16T14:23:13;0.70;99.90
7445;DHT22;3764;48.126;11.594;2024-01-16T14:25:40;0.70;99.90
7445;DHT22;3764;48.126;11.594;2024-01-16T14:28:08;0.70;99.90
7445;DHT22;3764;48.126;11.594;2024-01-16T14:30:38;0.60;99.90
7445;DHT22;3764;48.126;11.594;2024-01-16T14:33:06;0.60;99.90
7445;DHT22;3764;48.126;11.594;2024-01-16T14:35:34;0.60;99.90
7445;DHT22;3764;48.126;11.594;2024-01-16T14:38:02;0.60;99.90
7445;DHT22;3764;48.126;11.594;2024-01-16T14:40:29;0.50;99.90
7445;DHT22;3764;48.126;11.594;2024-01-16T14:42:57;0.50;99.90
7445;DHT22;3764;48.126;11.594;2024-01-16T14:45:25;0.50;99.90
7445;DHT22;3764;48.126;11.594;2024-01-16T14:47:54;0.50;99.90
7445;DHT22;3764;48.126;11.594;2024-01-16T14:50:22;0.60;99.90
7445;DHT22;3764;48.126;11.594;2024-01-16T14:52:50;0.60;99.90
7445;DHT22;3764;48.126;11.594;2024-01-16T14:55:18;0.60;99.90
7445;DHT22;3764;48.126;11.594;2024-01-16T14:57:47;0.60;99.90
7445;DHT22;3764;48.126;11.594;2024-01-16T15:00:19;0.50;99.90
7445;DHT22;3764;48.126;11.594;2024-01-16T15:02:49;0.50;99.90
7445;DHT22;3764;48.126;11.594;2024-01-16T15:05:18;0.50;99.90
7445;DHT22;3764;48.126;11.594;2024-01-16T15:07:46;0.50;99.90
7445;DHT22;3764;48.126;11.594;2024-01-16T15:10:13;0.40;99.90
7445;DHT22;3764;48.126;11.594;2024-01-16T15:12:43;0.40;99.90
7445;DHT22;3764;48.126;11.594;2024-01-16T15:15:11;0.40;99.90
7445;DHT22;3764;48.126;11.594;2024-01-16T15:17:39;0.40;99.90
7445;DHT22;3764;48.126;11.594;2024-01-16T15:20:07;0.30;99.90
7445;DHT22;3764;48.126;11.594;2024-01-16T15:22:39;0.30;99.90
7445;DHT22;3764;48.126;11.594;2024-01-16T15:25:07;0.30;99.90
7445;DHT22;3764;48.126;11.594;2024-01-16T15:27:35;0.30;99.90
7445;DHT22;3764;48.126;11.594;2024-01-16T15:30:04;0.30;99.90
7445;DHT22;3764;48.126;11.594;2024-01-16T15:32:34;0.30;99.90
7445;DHT22;3764;48.126;11.594;2024-01-16T15:35:01;0.20;99.90
7445;DHT22;3764;48.126;11.594;2024-01-16T15:37:32;0.20;99.90
7445;DHT22;3764;48.126;11.594;2024-01-16T15:40:01;0.20;99.90
7445;DHT22;3764;48.126;11.594;2024-01-16T15:42:32;0.20;99.90
7445;DHT22;3764;48.126;11.594;2024-01-16T15:45:02;0.20;99.90
7445;DHT22;3764;48.126;11.594;2024-01-16T15:47:30;0.10;99.90
7445;DHT22;3764;48.126;11.594;2024-01-16T15:49:57;0.10;99.90
7445;DHT22;3764;48.126;11.594;2024-01-16T15:52:25;0.20;99.90
7445;DHT22;3764;48.126;11.594;2024-01-16T15:54:52;0.20;99.90
7445;DHT22;3764;48.126;11.594;2024-01-16T15:57:21;0.20;99.90
7445;DHT22;3764;48.126;11.594;2024-01-16T15:59:48;0.20;99.90